Time;durP1;ratioP1;P1;durP2;ratioP2;P2;SDS_P1;SDS_P2;PMS_P1;PMS_P2;Temp;Humidity;BMP_temperature;BMP_pressure;BME280_temperature;BME280_humidity;BME280_pressure;Samples;Min_cycle;Max_cycle;Signal;HPM_P1;HPM_P2
2023/03/17 00:02:11;;;;;;;2.53;2.33;;;22.70;50.50;;;;;;5057021;28;20993;-86
2023/03/17 00:04:42;;;;;;;2.37;2.27;;;22.70;50.40;;;;;;5067325;28;20482;-86
2023/03/17 00:07:15;;;;;;;1.97;1.87;;;22.70;50.40;;;;;;5072917;28;20489;-86
2023/03/17 00:09:43;;;;;;;2.57;2.40;;;22.70;50.40;;;;;;5054500;28;20473;-85
2023/03/17 00:12:12;;;;;;;2.90;2.60;;;22.70;50.40;;;;;;5072591;28;20449;-86
2023/03/17 00:14:43;;;;;;;3.00;2.70;;;22.60;50.50;;;;;;5054235;28;21012;-86
2023/03/17 00:17:28;;;;;;;3.50;2.43;;;22.60;50.50;;;;;;5070014;28;21053;-86
2023/03/17 00:19:59;;;;;;;3.03;2.73;;;22.60;50.50;;;;;;5053491;28;20563;-86
2023/03/17 00:22:28;;;;;;;2.57;2.37;;;22.60;50.50;;;;;;5072323;28;20449;-85
2023/03/17 00:24:56;;;;;;;2.77;2.57;;;22.60;50.60;;;;;;5054093;28;20477;-85
2023/03/17 00:27:24;;;;;;;3.30;2.70;;;22.60;50.60;;;;;;5054468;28;21014;-86
2023/03/17 00:29:52;;;;;;;2.10;2.00;;;22.50;50.60;;;;;;5054547;28;20941;-85
2023/03/17 00:32:25;;;;;;;2.33;2.20;;;22.50;50.60;;;;;;5072485;28;20540;-85
2023/03/17 00:34:55;;;;;;;3.00;2.43;;;22.50;50.60;;;;;;5053824;28;20838;-85
2023/03/17 00:37:25;;;;;;;2.20;2.00;;;22.50;50.70;;;;;;5067053;28;20491;-85
2023/03/17 00:39:53;;;;;;;2.30;2.00;;;22.50;50.60;;;;;;5069298;28;20556;-85
2023/03/17 00:42:22;;;;;;;2.30;2.13;;;22.50;50.60;;;;;;5062552;28;20525;-86
2023/03/17 00:44:50;;;;;;;2.67;2.47;;;22.50;50.60;;;;;;5053952;28;20511;-85
2023/03/17 00:47:18;;;;;;;2.40;2.20;;;22.50;50.60;;;;;;5072184;28;20494;-85
2023/03/17 00:49:47;;;;;;;2.40;2.20;;;22.50;50.60;;;;;;5053551;28;20468;-85
2023/03/17 00:52:18;;;;;;;1.93;1.83;;;22.50;50.60;;;;;;5053552;28;20496;-85
2023/03/17 00:54:46;;;;;;;2.50;2.30;;;22.50;50.70;;;;;;5053386;28;20449;-85
2023/03/17 00:57:18;;;;;;;2.60;2.40;;;22.50;50.70;;;;;;5070843;28;20787;-85
2023/03/17 00:59:46;;;;;;;1.90;1.77;;;22.50;50.60;;;;;;5052080;28;20503;-85
2023/03/17 01:02:14;;;;;;;2.27;2.07;;;22.50;50.60;;;;;;5064954;28;20438;-86
2023/03/17 01:04:44;;;;;;;2.30;2.10;;;22.50;50.60;;;;;;5073642;28;20462;-86
2023/03/17 01:07:23;;;;;;;2.90;2.63;;;22.50;50.60;;;;;;5071078;28;20512;-86
2023/03/17 01:09:51;;;;;;;2.57;2.37;;;22.50;50.60;;;;;;5075623;28;20560;-85
2023/03/17 01:12:20;;;;;;;2.60;2.40;;;22.50;50.60;;;;;;5062162;28;21106;-86
2023/03/17 01:14:49;;;;;;;2.53;2.30;;;22.50;50.60;;;;;;5071332;28;20457;-86
2023/03/17 01:17:18;;;;;;;2.30;2.10;;;22.50;50.60;;;;;;5075136;28;20519;-85
2023/03/17 01:19:47;;;;;;;2.60;2.40;;;22.50;50.60;;;;;;5074094;28;20452;-86
2023/03/17 01:22:21;;;;;;;2.27;2.13;;;22.50;50.60;;;;;;5071067;28;20940;-85
2023/03/17 01:24:49;;;;;;;2.23;2.03;;;22.50;50.50;;;;;;5070909;28;20842;-85
2023/03/17 01:27:18;;;;;;;2.37;2.17;;;22.50;50.50;;;;;;5059599;28;20480;-85
2023/03/17 01:29:52;;;;;;;2.17;1.97;;;22.50;50.50;;;;;;5058263;28;20454;-85
2023/03/17 01:32:24;;;;;;;2.17;2.07;;;22.50;50.50;;;;;;5062398;28;20452;-86
2023/03/17 01:34:53;;;;;;;2.40;2.30;;;22.50;50.50;;;;;;5070553;28;20453;-85
2023/03/17 01:37:22;;;;;;;2.20;2.10;;;22.50;50.50;;;;;;5053643;28;20478;-85
2023/03/17 01:39:51;;;;;;;2.00;1.90;;;22.50;50.50;;;;;;5077943;28;20498;-85
2023/03/17 01:42:20;;;;;;;2.20;2.10;;;22.50;50.50;;;;;;5076664;28;20463;-85
2023/03/17 01:45:00;;;;;;;2.30;2.10;;;22.50;50.50;;;;;;5059854;28;21013;-85
2023/03/17 01:47:33;;;;;;;2.00;1.90;;;22.50;50.50;;;;;;5050925;28;20473;-85
2023/03/17 01:50:06;;;;;;;2.03;1.83;;;22.50;50.50;;;;;;5061049;28;20498;-85
2023/03/17 01:52:40;;;;;;;2.23;2.07;;;22.50;50.50;;;;;;5062962;28;20580;-86
2023/03/17 01:55:11;;;;;;;2.00;1.90;;;22.50;50.50;;;;;;5075164;28;20448;-86
2023/03/17 01:57:49;;;;;;;3.53;2.27;;;22.50;50.50;;;;;;5067834;28;20457;-87
2023/03/17 02:00:22;;;;;;;2.00;1.90;;;22.50;50.50;;;;;;5047792;28;20544;-85
2023/03/17 02:02:55;;;;;;;2.27;2.10;;;22.40;50.50;;;;;;5059339;28;20542;-85
2023/03/17 02:05:28;;;;;;;2.13;1.97;;;22.40;50.50;;;;;;5039203;28;20454;-85
2023/03/17 02:07:58;;;;;;;2.00;1.90;;;22.40;50.50;;;;;;5069094;28;20510;-85
2023/03/17 02:10:29;;;;;;;2.40;2.17;;;22.40;50.50;;;;;;5077676;28;20472;-86
2023/03/17 02:13:04;;;;;;;2.57;2.37;;;22.40;50.50;;;;;;5060697;28;20494;-85
2023/03/17 02:15:40;;;;;;;1.97;1.83;;;22.40;50.50;;;;;;5053753;28;20449;-85
2023/03/17 02:18:11;;;;;;;2.20;2.00;;;22.40;50.50;;;;;;5067730;28;20456;-86
2023/03/17 02:21:28;;;;;;;2.20;2.00;;;22.40;50.50;;;;;;5068979;28;20468;-86
2023/03/17 02:23:57;;;;;;;2.30;2.20;;;22.40;50.50;;;;;;5064842;28;20514;-86
2023/03/17 02:26:26;;;;;;;2.00;1.90;;;22.40;50.50;;;;;;5069257;28;20463;-86
2023/03/17 02:28:54;;;;;;;2.20;2.03;;;22.40;50.50;;;;;;5067338;28;20459;-86
2023/03/17 02:31:25;;;;;;;2.10;2.00;;;22.40;50.40;;;;;;5052172;28;20506;-86
2023/03/17 02:33:54;;;;;;;2.30;2.10;;;22.40;50.40;;;;;;5051833;28;20535;-86
2023/03/17 02:36:23;;;;;;;2.30;2.20;;;22.40;50.40;;;;;;5070606;28;20484;-86
2023/03/17 02:38:55;;;;;;;1.90;1.80;;;22.40;50.40;;;;;;5062849;28;20464;-86
2023/03/17 02:41:23;;;;;;;1.93;1.83;;;22.40;50.40;;;;;;5052014;28;20473;-86
2023/03/17 02:43:52;;;;;;;1.90;1.80;;;22.40;50.40;;;;;;5052515;28;20540;-86
2023/03/17 02:46:20;;;;;;;2.23;2.13;;;22.40;50.40;;;;;;5070154;28;21047;-86
2023/03/17 02:48:50;;;;;;;2.27;2.17;;;22.40;50.40;;;;;;5063874;28;20521;-86
2023/03/17 02:51:18;;;;;;;1.97;1.87;;;22.40;50.40;;;;;;5070120;28;20526;-86
2023/03/17 02:53:46;;;;;;;1.50;1.40;;;22.40;50.40;;;;;;5060361;28;20449;-85
2023/03/17 02:56:16;;;;;;;1.70;1.60;;;22.40;50.40;;;;;;5070525;28;20905;-85
2023/03/17 02:58:45;;;;;;;2.50;2.23;;;22.40;50.40;;;;;;5059590;28;20511;-85
2023/03/17 03:01:14;;;;;;;2.20;2.10;;;22.40;50.40;;;;;;5048193;28;20458;-85
2023/03/17 03:03:42;;;;;;;2.00;1.90;;;22.40;50.40;;;;;;5058096;28;20500;-86
2023/03/17 03:06:11;;;;;;;1.57;1.47;;;22.40;50.40;;;;;;5068391;28;20517;-86
2023/03/17 03:08:39;;;;;;;2.33;2.10;;;22.40;50.30;;;;;;5065560;28;20465;-85
2023/03/17 03:11:08;;;;;;;2.33;2.13;;;22.40;50.30;;;;;;5070592;28;20467;-86
2023/03/17 03:13:37;;;;;;;2.70;2.50;;;22.40;50.30;;;;;;5070621;28;21156;-85
2023/03/17 03:16:07;;;;;;;2.40;2.30;;;22.40;50.30;;;;;;5054311;28;20457;-85
2023/03/17 03:18:36;;;;;;;1.90;1.80;;;22.30;50.30;;;;;;5060980;28;20481;-85
2023/03/17 03:21:05;;;;;;;2.33;2.13;;;22.40;50.30;;;;;;5073785;28;20441;-86
2023/03/17 03:23:35;;;;;;;2.20;2.10;;;22.30;50.30;;;;;;5073869;28;20927;-85
2023/03/17 03:26:03;;;;;;;1.77;1.67;;;22.30;50.30;;;;;;5055906;28;20545;-85
2023/03/17 03:28:32;;;;;;;1.87;1.77;;;22.30;50.30;;;;;;5073041;28;20476;-86
2023/03/17 03:31:01;;;;;;;2.50;2.30;;;22.30;50.30;;;;;;5072770;28;20544;-86
2023/03/17 03:33:30;;;;;;;2.23;2.10;;;22.30;50.30;;;;;;5054907;28;20987;-86
2023/03/17 03:35:58;;;;;;;2.00;1.90;;;22.30;50.30;;;;;;5072578;28;20520;-86
2023/03/17 03:38:26;;;;;;;2.17;2.03;;;22.30;50.30;;;;;;5054696;28;20469;-86
2023/03/17 03:40:55;;;;;;;1.97;1.87;;;22.30;50.30;;;;;;5066695;28;20460;-85
2023/03/17 03:43:23;;;;;;;1.70;1.60;;;22.30;50.30;;;;;;5055570;28;20532;-85
2023/03/17 03:45:55;;;;;;;1.90;1.80;;;22.30;50.30;;;;;;5055654;28;21026;-85
2023/03/17 03:48:25;;;;;;;1.80;1.70;;;22.30;50.30;;;;;;5072455;28;20976;-86
2023/03/17 03:50:57;;;;;;;2.03;1.93;;;22.30;50.30;;;;;;5073295;28;20441;-85
2023/03/17 03:53:25;;;;;;;1.57;1.50;;;22.30;50.30;;;;;;5057375;28;20535;-85
2023/03/17 03:55:54;;;;;;;2.10;2.00;;;22.30;50.30;;;;;;5071707;28;20987;-86
2023/03/17 03:58:24;;;;;;;1.70;1.60;;;22.30;50.30;;;;;;5070616;28;20568;-86
2023/03/17 04:00:52;;;;;;;1.97;1.87;;;22.30;50.20;;;;;;5071175;28;20465;-86
2023/03/17 04:03:20;;;;;;;1.80;1.70;;;22.30;50.30;;;;;;5056612;28;20457;-85
2023/03/17 04:05:50;;;;;;;1.93;1.83;;;22.30;50.30;;;;;;5056115;28;20523;-85
2023/03/17 04:08:19;;;;;;;2.30;2.10;;;22.30;50.20;;;;;;5071892;28;20536;-85
2023/03/17 04:10:48;;;;;;;2.43;2.30;;;22.30;50.20;;;;;;5071613;28;20484;-85
2023/03/17 04:13:16;;;;;;;2.30;2.20;;;22.30;50.20;;;;;;5066353;28;20528;-85
2023/03/17 04:15:44;;;;;;;1.40;1.30;;;22.30;50.20;;;;;;5054984;28;20640;-85
2023/03/17 04:18:13;;;;;;;1.97;1.87;;;22.30;50.20;;;;;;5053955;28;20468;-85
2023/03/17 04:20:41;;;;;;;1.93;1.80;;;22.30;50.20;;;;;;5054895;28;20457;-85
2023/03/17 04:23:10;;;;;;;1.97;1.77;;;22.30;50.20;;;;;;5054937;28;20481;-85
2023/03/17 04:25:41;;;;;;;2.00;1.90;;;22.30;50.20;;;;;;5054384;28;20506;-85
2023/03/17 04:28:09;;;;;;;1.70;1.60;;;22.30;50.20;;;;;;5066033;28;20445;-85
2023/03/17 04:30:38;;;;;;;2.30;1.73;;;22.30;50.20;;;;;;5051050;28;20508;-85
2023/03/17 04:33:06;;;;;;;1.70;1.60;;;22.30;50.10;;;;;;5071189;28;20787;-86
2023/03/17 04:35:34;;;;;;;1.60;1.50;;;22.30;50.10;;;;;;5052553;28;20469;-85
2023/03/17 04:38:02;;;;;;;2.10;1.90;;;22.30;50.10;;;;;;5072022;28;20902;-85
2023/03/17 04:40:32;;;;;;;2.43;2.30;;;22.30;50.10;;;;;;5067550;28;20470;-85
2023/03/17 04:43:02;;;;;;;1.80;1.70;;;22.30;50.10;;;;;;5058802;28;20502;-85
2023/03/17 04:45:31;;;;;;;2.00;1.90;;;22.30;50.10;;;;;;5071572;28;21057;-85
2023/03/17 04:47:59;;;;;;;2.07;1.97;;;22.30;50.10;;;;;;5075576;28;20461;-85
2023/03/17 04:50:27;;;;;;;2.00;1.90;;;22.30;50.10;;;;;;5064687;28;20460;-86
2023/03/17 04:53:00;;;;;;;2.20;2.10;;;22.30;50.10;;;;;;5067817;28;20839;-85
2023/03/17 04:55:28;;;;;;;3.07;2.00;;;22.20;50.10;;;;;;5069133;28;20484;-85
2023/03/17 04:57:58;;;;;;;1.80;1.70;;;22.30;50.10;;;;;;5071470;28;20584;-85
2023/03/17 05:00:26;;;;;;;1.77;1.67;;;22.30;50.10;;;;;;5043964;28;20492;-85
2023/03/17 05:02:55;;;;;;;1.97;1.83;;;22.20;50.10;;;;;;5061368;28;20456;-85
2023/03/17 05:05:23;;;;;;;2.07;1.97;;;22.30;50.10;;;;;;5069971;28;20453;-86
2023/03/17 05:07:51;;;;;;;1.90;1.80;;;22.30;50.00;;;;;;5072030;28;20463;-85
2023/03/17 05:10:20;;;;;;;1.60;1.50;;;22.20;50.00;;;;;;5069981;28;20453;-85
2023/03/17 05:12:48;;;;;;;1.80;1.70;;;22.20;50.00;;;;;;5051788;28;20453;-86
2023/03/17 05:15:17;;;;;;;1.80;1.70;;;22.20;50.00;;;;;;5050949;28;20476;-85
2023/03/17 05:17:46;;;;;;;1.90;1.67;;;22.20;50.00;;;;;;5066945;28;20488;-85
2023/03/17 05:20:15;;;;;;;1.90;1.80;;;22.20;50.00;;;;;;5051593;28;20484;-85
2023/03/17 05:22:45;;;;;;;1.80;1.70;;;22.20;50.00;;;;;;5046485;28;20685;-86
2023/03/17 05:25:15;;;;;;;2.00;1.90;;;22.20;50.00;;;;;;5063464;28;21000;-85
2023/03/17 05:27:43;;;;;;;1.83;1.73;;;22.20;50.00;;;;;;5079348;28;20551;-85
2023/03/17 05:30:18;;;;;;;1.70;1.60;;;22.20;50.00;;;;;;5064793;28;20460;-86
2023/03/17 05:32:46;;;;;;;1.73;1.63;;;22.20;50.00;;;;;;5072534;28;20961;-85
2023/03/17 05:35:17;;;;;;;2.33;2.13;;;22.20;50.00;;;;;;5068239;28;20442;-85
2023/03/17 05:37:48;;;;;;;2.17;2.00;;;22.20;50.00;;;;;;5064137;28;20503;-85
2023/03/17 05:40:16;;;;;;;2.07;1.97;;;22.20;50.00;;;;;;5068812;28;20457;-85
2023/03/17 05:42:45;;;;;;;1.77;1.67;;;22.20;50.00;;;;;;5060364;28;20483;-85
2023/03/17 05:45:13;;;;;;;1.57;1.47;;;22.20;50.00;;;;;;5051565;28;20968;-86
2023/03/17 05:47:43;;;;;;;1.93;1.83;;;22.20;50.00;;;;;;5065179;28;20740;-86
2023/03/17 05:50:12;;;;;;;1.50;1.37;;;22.20;50.00;;;;;;5056088;28;20505;-86
2023/03/17 05:52:41;;;;;;;1.77;1.67;;;22.20;50.00;;;;;;5058446;28;20965;-85
2023/03/17 05:55:10;;;;;;;1.80;1.70;;;22.20;49.90;;;;;;5038928;28;20458;-85
2023/03/17 05:57:38;;;;;;;1.67;1.57;;;22.30;49.90;;;;;;5061334;28;20565;-85
2023/03/17 06:00:08;;;;;;;2.43;1.77;;;22.20;49.90;;;;;;5057597;28;20456;-86
2023/03/17 06:02:40;;;;;;;1.97;1.87;;;22.20;50.00;;;;;;5051443;28;21019;-86
2023/03/17 06:05:37;;;;;;;6.90;1.93;;;22.20;50.20;;;;;;5059739;28;20529;-86
2023/03/17 06:08:06;;;;;;;1.93;1.83;;;22.20;50.40;;;;;;5061723;28;20956;-87
2023/03/17 06:10:38;;;;;;;1.80;1.70;;;22.20;50.50;;;;;;5072204;28;20550;-85
2023/03/17 06:13:06;;;;;;;2.10;1.90;;;22.20;50.80;;;;;;5078609;28;20979;-88
2023/03/17 06:15:42;;;;;;;2.00;1.90;;;22.20;50.80;;;;;;5069213;28;20540;-85
2023/03/17 06:18:28;;;;;;;4.00;1.73;;;22.20;51.00;;;;;;5068298;28;20476;-84
2023/03/17 06:20:58;;;;;;;3.93;1.53;;;22.20;51.00;;;;;;5058086;28;20963;-87
2023/03/17 06:23:29;;;;;;;6.97;1.93;;;22.20;51.10;;;;;;5062852;28;20467;-83
2023/03/17 06:25:57;;;;;;;8.60;1.90;;;22.20;51.20;;;;;;5070472;28;20945;-85
2023/03/17 06:28:25;;;;;;;4.50;1.90;;;22.10;51.20;;;;;;5063721;28;20468;-84
2023/03/17 06:30:53;;;;;;;5.03;2.63;;;22.10;51.20;;;;;;5066735;28;20523;-86
2023/03/17 06:33:22;;;;;;;3.30;2.10;;;22.10;51.30;;;;;;5063117;28;20468;-86
2023/03/17 06:35:50;;;;;;;2.40;2.20;;;22.10;51.30;;;;;;5062614;28;20441;-85
2023/03/17 06:38:23;;;;;;;3.00;1.87;;;22.10;51.30;;;;;;5060658;28;20484;-85
2023/03/17 06:40:52;;;;;;;2.23;2.00;;;22.10;51.30;;;;;;5058453;28;20555;-87
2023/03/17 06:43:21;;;;;;;1.97;1.57;;;22.10;51.30;;;;;;5046836;28;20480;-86
2023/03/17 06:45:49;;;;;;;2.70;1.83;;;22.10;51.30;;;;;;5056364;28;20569;-87
2023/03/17 06:48:17;;;;;;;2.60;2.10;;;22.10;51.30;;;;;;5037728;28;20452;-86
2023/03/17 06:50:46;;;;;;;1.60;1.50;;;22.10;51.30;;;;;;5063478;28;20564;-86
2023/03/17 06:53:15;;;;;;;3.53;2.20;;;22.10;51.30;;;;;;5063836;28;20666;-85
2023/03/17 06:55:44;;;;;;;2.67;2.37;;;22.20;51.30;;;;;;5061176;28;20465;-86
2023/03/17 06:58:14;;;;;;;2.53;1.90;;;22.20;51.30;;;;;;5071776;28;20459;-85
2023/03/17 07:00:59;;;;;;;3.13;2.17;;;22.20;51.30;;;;;;5079017;28;20460;-85
2023/03/17 07:03:34;;;;;;;2.73;2.43;;;22.20;51.30;;;;;;5060805;28;20476;-84
2023/03/17 07:06:23;;;;;;;1.90;1.80;;;22.20;51.30;;;;;;5073207;28;20505;-84
2023/03/17 07:09:02;;;;;;;1.90;1.70;;;22.20;51.30;;;;;;5056395;28;20832;-84
2023/03/17 07:11:37;;;;;;;1.93;1.83;;;22.20;51.30;;;;;;5069919;28;20460;-85
2023/03/17 07:14:12;;;;;;;2.10;1.90;;;22.30;51.30;;;;;;5057023;28;20476;-85
2023/03/17 07:16:54;;;;;;;3.13;1.97;;;22.30;51.30;;;;;;5064643;28;20469;-86
2023/03/17 07:19:22;;;;;;;2.63;2.00;;;22.30;51.40;;;;;;5053007;28;20969;-83
2023/03/17 07:21:50;;;;;;;3.30;2.30;;;22.30;51.50;;;;;;5078767;28;20488;-81
2023/03/17 07:24:19;;;;;;;8.73;2.53;;;22.30;52.10;;;;;;5077230;28;20484;-81
2023/03/17 07:26:49;;;;;;;2.33;2.13;;;22.40;52.30;;;;;;5056012;28;20809;-81
2023/03/17 07:29:18;;;;;;;4.87;2.53;;;22.40;52.40;;;;;;5070363;28;20514;-81
2023/03/17 07:31:47;;;;;;;2.53;2.20;;;22.40;52.40;;;;;;5070998;28;20459;-82
2023/03/17 07:34:15;;;;;;;4.23;1.70;;;22.50;52.40;;;;;;5071884;28;20453;-81
2023/03/17 07:36:44;;;;;;;3.23;1.87;;;22.50;52.40;;;;;;5077753;28;20460;-82
2023/03/17 07:39:12;;;;;;;3.00;2.07;;;22.50;52.40;;;;;;5071596;28;20512;-84
2023/03/17 07:41:41;;;;;;;2.93;2.00;;;22.60;52.50;;;;;;5087071;28;20457;-81
2023/03/17 07:44:11;;;;;;;1.90;1.80;;;22.60;52.40;;;;;;5055611;28;20461;-81
2023/03/17 07:46:39;;;;;;;2.20;1.97;;;22.70;52.50;;;;;;5071171;28;20462;-80
2023/03/17 07:49:08;;;;;;;1.90;1.80;;;22.70;52.50;;;;;;5064973;28;20459;-84
2023/03/17 07:51:37;;;;;;;2.30;2.10;;;22.80;52.50;;;;;;5070054;28;20450;-83
2023/03/17 07:54:05;;;;;;;3.07;2.17;;;22.80;52.50;;;;;;5061167;28;20542;-85
2023/03/17 07:56:33;;;;;;;2.97;2.10;;;22.90;52.50;;;;;;5078611;28;20541;-84
2023/03/17 07:59:02;;;;;;;1.80;1.70;;;22.90;52.50;;;;;;5070244;28;20479;-81
2023/03/17 08:01:31;;;;;;;3.40;2.50;;;22.90;52.40;;;;;;5067233;28;20514;-82
2023/03/17 08:03:59;;;;;;;2.00;1.90;;;22.90;52.60;;;;;;5072439;28;20457;-83
2023/03/17 08:06:28;;;;;;;5.80;3.00;;;22.90;52.50;;;;;;5071209;28;20513;-82
2023/03/17 08:08:57;;;;;;;5.50;2.50;;;22.90;52.50;;;;;;5072480;28;20450;-80
2023/03/17 08:11:25;;;;;;;5.10;2.57;;;22.90;52.40;;;;;;5067532;28;21002;-82
2023/03/17 08:13:56;;;;;;;2.90;2.53;;;22.90;52.30;;;;;;5076795;28;20536;-82
2023/03/17 08:16:25;;;;;;;4.50;2.27;;;22.90;52.40;;;;;;5066826;28;20531;-83
2023/03/17 08:18:56;;;;;;;5.70;2.20;;;23.00;52.50;;;;;;5076973;28;20453;-85
2023/03/17 08:21:24;;;;;;;2.10;1.90;;;23.00;52.50;;;;;;5072278;28;20454;-86
2023/03/17 08:23:52;;;;;;;4.10;2.40;;;23.00;52.60;;;;;;5071962;28;20480;-83
2023/03/17 08:26:22;;;;;;;3.20;2.37;;;23.00;52.50;;;;;;5068014;28;20537;-82
2023/03/17 08:28:51;;;;;;;2.80;1.90;;;23.10;52.50;;;;;;5068159;28;20941;-85
2023/03/17 08:31:21;;;;;;;3.90;2.40;;;23.10;52.50;;;;;;5059814;28;21005;-85
2023/03/17 08:33:52;;;;;;;2.43;1.97;;;23.10;52.60;;;;;;5069989;28;20474;-82
2023/03/17 08:36:22;;;;;;;3.30;2.50;;;23.10;52.50;;;;;;5070924;28;20526;-83
2023/03/17 08:38:51;;;;;;;2.57;1.97;;;23.20;52.60;;;;;;5073723;28;20453;-82
2023/03/17 08:41:22;;;;;;;2.13;1.90;;;23.20;52.60;;;;;;5053670;28;20542;-82
2023/03/17 08:43:51;;;;;;;7.90;2.47;;;23.20;52.50;;;;;;5064361;28;20447;-83
2023/03/17 08:46:21;;;;;;;2.30;1.77;;;23.30;52.50;;;;;;5071761;28;20446;-82
2023/03/17 08:48:52;;;;;;;2.33;2.13;;;23.30;52.50;;;;;;5071456;28;20450;-84
2023/03/17 08:51:24;;;;;;;3.80;1.83;;;23.30;52.40;;;;;;5072332;28;20451;-83
2023/03/17 08:53:53;;;;;;;2.93;1.67;;;23.30;52.40;;;;;;5054703;28;20461;-84
2023/03/17 08:56:22;;;;;;;5.30;2.10;;;23.40;52.50;;;;;;5054324;28;20451;-83
2023/03/17 08:58:51;;;;;;;3.87;2.10;;;23.40;52.40;;;;;;5071047;28;20439;-83
2023/03/17 09:01:21;;;;;;;8.23;2.27;;;23.40;52.40;;;;;;5072231;28;20561;-82
2023/03/17 09:03:50;;;;;;;2.80;1.80;;;23.40;52.40;;;;;;5070601;28;20503;-86
2023/03/17 09:06:19;;;;;;;6.77;2.37;;;23.40;52.40;;;;;;5081309;28;20576;-85
2023/03/17 09:08:53;;;;;;;4.50;2.10;;;23.40;52.40;;;;;;5083670;28;20439;-82
2023/03/17 09:11:24;;;;;;;2.40;1.67;;;23.40;52.40;;;;;;5075381;28;20437;-85
2023/03/17 09:13:53;;;;;;;2.30;1.87;;;23.40;52.40;;;;;;5086744;28;20566;-86
2023/03/17 09:16:22;;;;;;;2.00;1.73;;;23.50;52.50;;;;;;5076521;28;20500;-86
2023/03/17 09:18:51;;;;;;;2.70;1.70;;;23.50;52.50;;;;;;5056779;28;20451;-85
2023/03/17 09:21:20;;;;;;;2.20;1.50;;;23.50;52.50;;;;;;5061991;28;20471;-86
2023/03/17 09:23:50;;;;;;;2.13;1.87;;;23.50;52.50;;;;;;5062601;28;20487;-85
2023/03/17 09:26:18;;;;;;;2.10;1.80;;;23.50;52.40;;;;;;5071612;28;21003;-85
2023/03/17 09:28:47;;;;;;;2.57;1.80;;;23.50;52.50;;;;;;5068902;28;20465;-85
2023/03/17 09:31:15;;;;;;;4.63;1.70;;;23.50;52.50;;;;;;5064901;28;20526;-86
2023/03/17 09:33:44;;;;;;;2.00;1.77;;;23.50;52.50;;;;;;5078707;28;20461;-87
2023/03/17 09:36:13;;;;;;;3.40;2.33;;;23.50;52.50;;;;;;5074585;28;20442;-85
2023/03/17 09:38:41;;;;;;;4.70;1.40;;;23.50;52.50;;;;;;5057369;28;20501;-86
2023/03/17 09:41:31;;;;;;;1.77;1.63;;;23.50;52.40;;;;;;5072999;28;20473;-87
2023/03/17 09:44:11;;;;;;;1.70;1.60;;;23.50;52.60;;;;;;5066647;28;20459;-82
2023/03/17 09:46:49;;;;;;;1.80;1.60;;;23.50;52.40;;;;;;5081194;28;20458;-81
2023/03/17 09:49:21;;;;;;;3.77;1.60;;;23.50;51.40;;;;;;5066024;28;20446;-81
2023/03/17 09:51:50;;;;;;;1.67;1.57;;;23.50;51.30;;;;;;5067280;28;20488;-82
2023/03/17 09:54:25;;;;;;;2.33;2.13;;;23.50;51.10;;;;;;5069769;28;20978;-82
2023/03/17 09:57:04;;;;;;;1.73;1.63;;;23.50;51.00;;;;;;5059247;28;20548;-81
2023/03/17 09:59:35;;;;;;;3.90;1.87;;;23.50;51.00;;;;;;5067758;28;20497;-81
2023/03/17 10:02:17;;;;;;;1.77;1.67;;;23.50;50.90;;;;;;5047527;28;20561;-83
2023/03/17 10:04:46;;;;;;;1.83;1.73;;;23.50;50.80;;;;;;5066640;28;21284;-85
2023/03/17 10:07:20;;;;;;;2.00;1.90;;;23.50;50.80;;;;;;5061681;28;20453;-83
2023/03/17 10:10:19;;;;;;;4.00;1.97;;;23.50;50.80;;;;;;5037778;28;20455;-76
2023/03/17 10:12:56;;;;;;;4.17;2.47;;;23.40;50.90;;;;;;5059275;28;20930;-78
2023/03/17 10:15:33;;;;;;;3.13;2.10;;;23.50;50.90;;;;;;5082665;28;20532;-84
2023/03/17 10:18:08;;;;;;;2.77;1.63;;;23.50;50.80;;;;;;5073927;28;20534;-82
2023/03/17 10:20:44;;;;;;;2.93;2.00;;;23.50;50.80;;;;;;5077643;28;20577;-82
2023/03/17 10:23:15;;;;;;;2.00;1.80;;;23.50;50.70;;;;;;5064673;28;20477;-85
2023/03/17 10:25:44;;;;;;;2.20;2.00;;;23.50;50.70;;;;;;5079193;28;20816;-85
2023/03/17 10:28:28;;;;;;;2.07;1.63;;;23.50;50.60;;;;;;5072085;28;20907;-85
2023/03/17 10:31:09;;;;;;;1.90;1.70;;;23.60;50.50;;;;;;5058989;28;20817;-79
2023/03/17 10:33:37;;;;;;;2.03;1.73;;;23.50;50.40;;;;;;5063546;28;20456;-81
2023/03/17 10:36:09;;;;;;;12.50;2.20;;;23.60;50.70;;;;;;5062568;28;20858;-81
2023/03/17 10:38:38;;;;;;;2.90;2.00;;;23.60;50.40;;;;;;5071822;28;20479;-81
2023/03/17 10:41:09;;;;;;;2.03;1.83;;;23.60;50.40;;;;;;5081393;28;20469;-81
2023/03/17 10:43:43;;;;;;;1.90;1.80;;;23.60;50.30;;;;;;5071546;28;20457;-82
2023/03/17 10:46:20;;;;;;;3.30;2.00;;;23.60;50.40;;;;;;5059525;28;20795;-83
2023/03/17 10:48:53;;;;;;;2.00;1.80;;;23.60;50.40;;;;;;5076631;28;20445;-81
2023/03/17 10:51:28;;;;;;;1.53;1.43;;;23.70;50.40;;;;;;5068665;28;20531;-82
2023/03/17 10:54:00;;;;;;;1.67;1.57;;;23.70;50.40;;;;;;5072509;28;20456;-82
2023/03/17 10:56:33;;;;;;;2.53;1.83;;;23.70;50.20;;;;;;5084400;28;20529;-82
2023/03/17 10:59:08;;;;;;;2.30;1.90;;;23.80;49.80;;;;;;5070114;28;20490;-81
2023/03/17 11:01:40;;;;;;;1.70;1.60;;;23.90;49.80;;;;;;5073253;28;20475;-83
2023/03/17 11:04:28;;;;;;;3.53;1.97;;;24.00;49.60;;;;;;5080206;28;20456;-84
2023/03/17 11:06:58;;;;;;;1.70;1.60;;;24.20;49.60;;;;;;5068299;28;20465;-82
2023/03/17 11:09:28;;;;;;;1.70;1.60;;;24.30;49.40;;;;;;5071928;28;20450;-80
2023/03/17 11:12:02;;;;;;;2.47;1.80;;;24.50;49.20;;;;;;5074315;28;20446;-80
2023/03/17 11:14:32;;;;;;;1.70;1.60;;;24.60;48.80;;;;;;5081802;28;20952;-80
2023/03/17 11:17:02;;;;;;;1.87;1.70;;;24.70;48.60;;;;;;5072100;28;20492;-81
2023/03/17 11:19:42;;;;;;;1.80;1.70;;;24.70;48.80;;;;;;5077275;28;20438;-82
2023/03/17 11:22:14;;;;;;;2.60;1.77;;;24.70;48.70;;;;;;5073163;28;20494;-82
2023/03/17 11:24:55;;;;;;;3.83;2.10;;;24.80;48.60;;;;;;5068791;28;20587;-79
2023/03/17 11:27:30;;;;;;;2.60;1.33;;;24.80;48.60;;;;;;5069329;28;20542;-81
2023/03/17 11:30:17;;;;;;;1.60;1.57;;;24.80;48.50;;;;;;5042026;28;20544;-81
2023/03/17 11:32:55;;;;;;;1.80;1.70;;;24.80;48.50;;;;;;5059201;28;20503;-81
2023/03/17 11:35:50;;;;;;;1.77;1.67;;;24.80;48.40;;;;;;5075012;28;20983;-85
2023/03/17 11:38:24;;;;;;;4.60;1.87;;;24.80;48.40;;;;;;5054968;28;20525;-83
2023/03/17 11:41:30;;;;;;;1.40;1.30;;;24.80;48.30;;;;;;5063086;28;20475;-83
2023/03/17 11:44:14;;;;;;;1.77;1.67;;;24.80;48.40;;;;;;5044345;28;20461;-83
2023/03/17 11:46:47;;;;;;;2.20;1.50;;;24.90;48.50;;;;;;5052470;28;20456;-84
2023/03/17 11:49:21;;;;;;;1.83;1.73;;;24.90;48.40;;;;;;5056679;28;20495;-84
2023/03/17 11:51:59;;;;;;;1.70;1.60;;;25.00;48.30;;;;;;5060620;28;20460;-85
2023/03/17 11:54:35;;;;;;;1.70;1.60;;;25.00;48.30;;;;;;5054453;28;20460;-84
2023/03/17 11:57:09;;;;;;;1.80;1.63;;;25.00;48.30;;;;;;5055383;28;20473;-84
2023/03/17 11:59:41;;;;;;;2.00;1.60;;;24.90;48.10;;;;;;5053696;28;20481;-83
2023/03/17 12:02:20;;;;;;;1.70;1.60;;;24.90;48.20;;;;;;5061756;28;20482;-84
2023/03/17 12:04:54;;;;;;;1.40;1.30;;;24.90;48.30;;;;;;5061964;28;20445;-83
2023/03/17 12:07:25;;;;;;;1.63;1.53;;;24.90;48.20;;;;;;5049207;28;20455;-85
2023/03/17 12:10:03;;;;;;;1.77;1.67;;;24.90;48.20;;;;;;5059814;28;20457;-83
2023/03/17 12:12:37;;;;;;;2.77;2.10;;;24.90;48.20;;;;;;5052239;28;20451;-85
2023/03/17 12:15:12;;;;;;;2.20;1.50;;;24.90;48.30;;;;;;5051185;28;20477;-82
2023/03/17 12:17:47;;;;;;;2.20;2.10;;;24.90;48.20;;;;;;5051782;28;20527;-85
2023/03/17 12:20:21;;;;;;;3.80;1.50;;;24.90;48.20;;;;;;5065493;28;20539;-84
2023/03/17 12:22:59;;;;;;;1.70;1.60;;;24.90;48.30;;;;;;5061335;28;20532;-84
2023/03/17 12:25:32;;;;;;;1.53;1.43;;;24.90;48.20;;;;;;5062045;28;20542;-84
2023/03/17 12:28:07;;;;;;;1.50;1.40;;;24.90;48.20;;;;;;5061345;28;20480;-83
2023/03/17 12:30:44;;;;;;;1.70;1.50;;;24.90;48.20;;;;;;5064262;28;20455;-82
2023/03/17 12:33:21;;;;;;;1.50;1.40;;;24.90;48.30;;;;;;5058483;28;20482;-82
2023/03/17 12:36:30;;;;;;;1.70;1.60;;;24.90;48.30;;;;;;5065516;28;20465;-83
2023/03/17 12:39:04;;;;;;;2.60;1.53;;;24.80;48.30;;;;;;5061794;28;20487;-86
2023/03/17 12:42:08;;;;;;;2.20;1.47;;;24.80;48.40;;;;;;5073002;28;20497;-85
2023/03/17 12:44:55;;;;;;;1.60;1.50;;;24.80;48.50;;;;;;5064488;28;20466;-85
2023/03/17 12:47:39;;;;;;;1.80;1.37;;;24.80;48.50;;;;;;5074237;28;20466;-84
2023/03/17 12:50:43;;;;;;;2.13;1.30;;;24.80;48.40;;;;;;5072990;28;20481;-84
2023/03/17 12:53:26;;;;;;;1.80;1.70;;;24.90;48.40;;;;;;5072826;28;20453;-85
2023/03/17 12:55:58;;;;;;;1.70;1.60;;;24.90;48.20;;;;;;5057507;28;20469;-84
2023/03/17 12:58:32;;;;;;;3.03;1.87;;;25.00;48.20;;;;;;5073931;28;20932;-84
2023/03/17 13:01:08;;;;;;;1.47;1.37;;;25.00;48.20;;;;;;5073182;28;20518;-81
2023/03/17 13:03:45;;;;;;;9.43;1.87;;;25.00;48.10;;;;;;5069249;28;20467;-80
2023/03/17 13:06:21;;;;;;;1.93;1.60;;;25.10;48.00;;;;;;5071850;28;20538;-81
2023/03/17 13:08:51;;;;;;;2.00;1.90;;;25.10;48.00;;;;;;5069453;28;20497;-81
2023/03/17 13:11:28;;;;;;;1.57;1.30;;;25.10;47.90;;;;;;5073476;28;20452;-81
2023/03/17 13:14:14;;;;;;;1.53;1.43;;;25.10;47.90;;;;;;5079477;28;20493;-86